sensor_id;sensor_type;location;lat;lon;timestamp;P1;durP1;ratioP1;P2;durP2;ratioP2
56999;SDS011;42891;50.006;21.964;2023-07-13T00:01:36;10.20;;;8.05;;
56999;SDS011;42891;50.006;21.964;2023-07-13T00:05:39;11.95;;;8.63;;
56999;SDS011;42891;50.006;21.964;2023-07-13T00:09:40;10.45;;;8.52;;
56999;SDS011;42891;50.006;21.964;2023-07-13T00:13:41;11.32;;;8.20;;
56999;SDS011;42891;50.006;21.964;2023-07-13T00:17:42;10.57;;;8.73;;
56999;SDS011;42891;50.006;21.964;2023-07-13T00:21:45;10.32;;;8.25;;
56999;SDS011;42891;50.006;21.964;2023-07-13T00:25:46;10.70;;;8.63;;
56999;SDS011;42891;50.006;21.964;2023-07-13T00:29:46;10.38;;;7.97;;
56999;SDS011;42891;50.006;21.964;2023-07-13T00:33:46;10.53;;;8.67;;
56999;SDS011;42891;50.006;21.964;2023-07-13T00:37:47;10.82;;;8.85;;
56999;SDS011;42891;50.006;21.964;2023-07-13T00:41:47;9.73;;;8.20;;
56999;SDS011;42891;50.006;21.964;2023-07-13T00:49:48;10.38;;;8.98;;
56999;SDS011;42891;50.006;21.964;2023-07-13T00:53:49;11.32;;;9.07;;
56999;SDS011;42891;50.006;21.964;2023-07-13T00:57:50;12.25;;;8.65;;
56999;SDS011;42891;50.006;21.964;2023-07-13T01:01:51;14.57;;;8.30;;
56999;SDS011;42891;50.006;21.964;2023-07-13T01:05:51;9.75;;;8.57;;
56999;SDS011;42891;50.006;21.964;2023-07-13T01:09:53;10.75;;;9.02;;
56999;SDS011;42891;50.006;21.964;2023-07-13T01:13:54;10.00;;;8.33;;
56999;SDS011;42891;50.006;21.964;2023-07-13T01:17:54;12.18;;;8.80;;
56999;SDS011;42891;50.006;21.964;2023-07-13T01:21:55;10.95;;;8.90;;
56999;SDS011;42891;50.006;21.964;2023-07-13T01:25:55;10.67;;;8.67;;
56999;SDS011;42891;50.006;21.964;2023-07-13T01:29:56;10.35;;;8.80;;
56999;SDS011;42891;50.006;21.964;2023-07-13T01:38:02;12.63;;;8.43;;
56999;SDS011;42891;50.006;21.964;2023-07-13T01:42:02;8.82;;;7.82;;
56999;SDS011;42891;50.006;21.964;2023-07-13T01:46:03;12.55;;;8.52;;
56999;SDS011;42891;50.006;21.964;2023-07-13T01:50:03;10.80;;;8.73;;
56999;SDS011;42891;50.006;21.964;2023-07-13T01:54:04;10.40;;;9.00;;
56999;SDS011;42891;50.006;21.964;2023-07-13T01:58:05;13.80;;;8.93;;
56999;SDS011;42891;50.006;21.964;2023-07-13T02:02:06;13.25;;;9.20;;
56999;SDS011;42891;50.006;21.964;2023-07-13T02:06:06;11.05;;;8.30;;
56999;SDS011;42891;50.006;21.964;2023-07-13T02:10:07;10.50;;;8.48;;
56999;SDS011;42891;50.006;21.964;2023-07-13T02:14:09;13.05;;;8.48;;
56999;SDS011;42891;50.006;21.964;2023-07-13T02:18:09;17.40;;;9.85;;
56999;SDS011;42891;50.006;21.964;2023-07-13T02:22:10;11.38;;;9.25;;
56999;SDS011;42891;50.006;21.964;2023-07-13T02:26:10;13.80;;;9.32;;
56999;SDS011;42891;50.006;21.964;2023-07-13T02:30:10;14.38;;;9.65;;
56999;SDS011;42891;50.006;21.964;2023-07-13T02:34:11;13.60;;;9.77;;
56999;SDS011;42891;50.006;21.964;2023-07-13T02:38:11;15.23;;;9.13;;
56999;SDS011;42891;50.006;21.964;2023-07-13T02:42:12;14.48;;;9.38;;
56999;SDS011;42891;50.006;21.964;2023-07-13T02:46:12;18.73;;;9.90;;
56999;SDS011;42891;50.006;21.964;2023-07-13T02:50:12;19.05;;;10.48;;
56999;SDS011;42891;50.006;21.964;2023-07-13T02:54:13;15.45;;;10.68;;
56999;SDS011;42891;50.006;21.964;2023-07-13T02:58:13;15.98;;;9.38;;
56999;SDS011;42891;50.006;21.964;2023-07-13T03:02:16;13.95;;;9.90;;
56999;SDS011;42891;50.006;21.964;2023-07-13T03:06:17;13.27;;;9.50;;
56999;SDS011;42891;50.006;21.964;2023-07-13T03:10:18;11.95;;;9.55;;
56999;SDS011;42891;50.006;21.964;2023-07-13T03:14:19;13.57;;;9.35;;
56999;SDS011;42891;50.006;21.964;2023-07-13T03:18:19;10.60;;;9.45;;
56999;SDS011;42891;50.006;21.964;2023-07-13T03:22:19;15.70;;;10.30;;
56999;SDS011;42891;50.006;21.964;2023-07-13T03:26:20;13.30;;;9.48;;
56999;SDS011;42891;50.006;21.964;2023-07-13T03:30:20;10.93;;;9.82;;
56999;SDS011;42891;50.006;21.964;2023-07-13T03:34:21;12.23;;;10.05;;
56999;SDS011;42891;50.006;21.964;2023-07-13T03:38:21;14.00;;;10.23;;
56999;SDS011;42891;50.006;21.964;2023-07-13T03:42:21;11.00;;;9.82;;
56999;SDS011;42891;50.006;21.964;2023-07-13T03:46:22;12.82;;;10.07;;
56999;SDS011;42891;50.006;21.964;2023-07-13T03:50:22;11.40;;;10.27;;
56999;SDS011;42891;50.006;21.964;2023-07-13T03:54:22;15.60;;;10.30;;
56999;SDS011;42891;50.006;21.964;2023-07-13T04:02:38;14.68;;;10.80;;
56999;SDS011;42891;50.006;21.964;2023-07-13T04:06:39;13.50;;;10.40;;
56999;SDS011;42891;50.006;21.964;2023-07-13T04:10:39;14.50;;;11.65;;
56999;SDS011;42891;50.006;21.964;2023-07-13T04:14:39;13.73;;;11.98;;
56999;SDS011;42891;50.006;21.964;2023-07-13T04:18:40;13.40;;;10.48;;
56999;SDS011;42891;50.006;21.964;2023-07-13T04:22:41;12.60;;;11.10;;
56999;SDS011;42891;50.006;21.964;2023-07-13T04:26:41;11.63;;;9.80;;
56999;SDS011;42891;50.006;21.964;2023-07-13T04:30:41;11.45;;;9.82;;
56999;SDS011;42891;50.006;21.964;2023-07-13T04:34:42;15.20;;;10.20;;
56999;SDS011;42891;50.006;21.964;2023-07-13T04:38:42;16.50;;;10.10;;
56999;SDS011;42891;50.006;21.964;2023-07-13T04:42:43;17.75;;;12.52;;
56999;SDS011;42891;50.006;21.964;2023-07-13T04:46:44;13.30;;;11.52;;
56999;SDS011;42891;50.006;21.964;2023-07-13T04:50:45;16.00;;;12.33;;
56999;SDS011;42891;50.006;21.964;2023-07-13T04:54:46;13.65;;;10.90;;
56999;SDS011;42891;50.006;21.964;2023-07-13T04:58:46;12.33;;;11.03;;
56999;SDS011;42891;50.006;21.964;2023-07-13T05:02:46;15.07;;;10.57;;
56999;SDS011;42891;50.006;21.964;2023-07-13T05:06:47;13.10;;;10.38;;
56999;SDS011;42891;50.006;21.964;2023-07-13T05:10:47;12.38;;;9.55;;
56999;SDS011;42891;50.006;21.964;2023-07-13T05:14:47;12.13;;;10.07;;
56999;SDS011;42891;50.006;21.964;2023-07-13T05:18:49;13.82;;;9.52;;
56999;SDS011;42891;50.006;21.964;2023-07-13T05:22:49;12.10;;;9.82;;
56999;SDS011;42891;50.006;21.964;2023-07-13T05:26:50;12.40;;;9.32;;
56999;SDS011;42891;50.006;21.964;2023-07-13T05:30:50;15.57;;;9.50;;
56999;SDS011;42891;50.006;21.964;2023-07-13T05:34:51;14.55;;;10.23;;
56999;SDS011;42891;50.006;21.964;2023-07-13T05:38:52;12.73;;;10.60;;
56999;SDS011;42891;50.006;21.964;2023-07-13T05:42:53;13.20;;;10.55;;
56999;SDS011;42891;50.006;21.964;2023-07-13T05:46:53;13.20;;;9.87;;
56999;SDS011;42891;50.006;21.964;2023-07-13T05:50:54;13.48;;;10.25;;
56999;SDS011;42891;50.006;21.964;2023-07-13T05:54:55;14.53;;;10.60;;
56999;SDS011;42891;50.006;21.964;2023-07-13T05:58:56;15.48;;;10.48;;
56999;SDS011;42891;50.006;21.964;2023-07-13T06:02:56;11.65;;;9.52;;
56999;SDS011;42891;50.006;21.964;2023-07-13T06:06:58;12.02;;;9.73;;
56999;SDS011;42891;50.006;21.964;2023-07-13T06:11:07;12.32;;;9.63;;
56999;SDS011;42891;50.006;21.964;2023-07-13T06:15:11;14.68;;;10.23;;
56999;SDS011;42891;50.006;21.964;2023-07-13T06:19:11;11.38;;;9.43;;
56999;SDS011;42891;50.006;21.964;2023-07-13T06:23:12;12.70;;;10.27;;
56999;SDS011;42891;50.006;21.964;2023-07-13T06:27:12;11.47;;;9.33;;
56999;SDS011;42891;50.006;21.964;2023-07-13T06:31:12;11.37;;;10.10;;
56999;SDS011;42891;50.006;21.964;2023-07-13T06:35:14;12.15;;;10.20;;
56999;SDS011;42891;50.006;21.964;2023-07-13T06:39:14;13.30;;;9.70;;
56999;SDS011;42891;50.006;21.964;2023-07-13T06:43:14;13.32;;;10.30;;
56999;SDS011;42891;50.006;21.964;2023-07-13T06:47:15;12.77;;;9.43;;
56999;SDS011;42891;50.006;21.964;2023-07-13T06:51:15;12.18;;;9.55;;
56999;SDS011;42891;50.006;21.964;2023-07-13T06:55:16;10.95;;;8.82;;
56999;SDS011;42891;50.006;21.964;2023-07-13T06:59:16;12.13;;;9.65;;
56999;SDS011;42891;50.006;21.964;2023-07-13T07:03:16;10.60;;;9.03;;
56999;SDS011;42891;50.006;21.964;2023-07-13T07:07:17;10.20;;;9.10;;
56999;SDS011;42891;50.006;21.964;2023-07-13T07:11:18;11.82;;;8.50;;
56999;SDS011;42891;50.006;21.964;2023-07-13T07:15:23;10.05;;;8.65;;
56999;SDS011;42891;50.006;21.964;2023-07-13T07:19:23;11.87;;;9.17;;
56999;SDS011;42891;50.006;21.964;2023-07-13T07:23:24;10.60;;;8.93;;
56999;SDS011;42891;50.006;21.964;2023-07-13T07:27:24;10.13;;;8.52;;
56999;SDS011;42891;50.006;21.964;2023-07-13T07:31:25;10.60;;;8.55;;
56999;SDS011;42891;50.006;21.964;2023-07-13T07:35:25;10.55;;;9.13;;
56999;SDS011;42891;50.006;21.964;2023-07-13T07:39:25;12.20;;;8.88;;
56999;SDS011;42891;50.006;21.964;2023-07-13T07:43:26;10.20;;;8.25;;
56999;SDS011;42891;50.006;21.964;2023-07-13T07:47:26;9.50;;;8.47;;
56999;SDS011;42891;50.006;21.964;2023-07-13T07:51:27;8.23;;;7.32;;
56999;SDS011;42891;50.006;21.964;2023-07-13T07:55:27;9.05;;;8.13;;
56999;SDS011;42891;50.006;21.964;2023-07-13T07:59:28;10.55;;;8.63;;
56999;SDS011;42891;50.006;21.964;2023-07-13T08:03:28;8.50;;;7.30;;
56999;SDS011;42891;50.006;21.964;2023-07-13T08:07:30;8.60;;;7.70;;
56999;SDS011;42891;50.006;21.964;2023-07-13T08:11:31;9.23;;;7.70;;
56999;SDS011;42891;50.006;21.964;2023-07-13T08:15:31;12.55;;;7.88;;
56999;SDS011;42891;50.006;21.964;2023-07-13T08:19:31;7.60;;;6.78;;
56999;SDS011;42891;50.006;21.964;2023-07-13T08:23:32;10.20;;;6.77;;
56999;SDS011;42891;50.006;21.964;2023-07-13T08:27:32;9.70;;;7.45;;
56999;SDS011;42891;50.006;21.964;2023-07-13T08:31:33;7.40;;;6.68;;
56999;SDS011;42891;50.006;21.964;2023-07-13T08:35:34;9.27;;;6.97;;
56999;SDS011;42891;50.006;21.964;2023-07-13T08:39:34;7.60;;;6.60;;
56999;SDS011;42891;50.006;21.964;2023-07-13T08:43:36;11.38;;;7.10;;
56999;SDS011;42891;50.006;21.964;2023-07-13T08:47:39;8.43;;;6.90;;
56999;SDS011;42891;50.006;21.964;2023-07-13T08:51:51;7.38;;;6.50;;
56999;SDS011;42891;50.006;21.964;2023-07-13T08:55:57;6.00;;;5.40;;
56999;SDS011;42891;50.006;21.964;2023-07-13T08:59:59;5.80;;;5.20;;
56999;SDS011;42891;50.006;21.964;2023-07-13T09:04:07;6.03;;;5.43;;
56999;SDS011;42891;50.006;21.964;2023-07-13T09:16:52;6.50;;;5.72;;
56999;SDS011;42891;50.006;21.964;2023-07-13T09:20:58;6.63;;;5.43;;
56999;SDS011;42891;50.006;21.964;2023-07-13T09:29:33;7.13;;;6.00;;
56999;SDS011;42891;50.006;21.964;2023-07-13T09:33:36;5.85;;;5.05;;
56999;SDS011;42891;50.006;21.964;2023-07-13T09:37:37;6.43;;;5.40;;
56999;SDS011;42891;50.006;21.964;2023-07-13T09:45:57;6.40;;;5.60;;
56999;SDS011;42891;50.006;21.964;2023-07-13T09:50:08;6.10;;;5.47;;
56999;SDS011;42891;50.006;21.964;2023-07-13T09:54:21;6.47;;;5.82;;
56999;SDS011;42891;50.006;21.964;2023-07-13T09:58:25;6.70;;;6.00;;
56999;SDS011;42891;50.006;21.964;2023-07-13T10:02:30;7.57;;;6.43;;
56999;SDS011;42891;50.006;21.964;2023-07-13T10:06:34;7.43;;;6.60;;
56999;SDS011;42891;50.006;21.964;2023-07-13T10:10:35;7.55;;;6.75;;
56999;SDS011;42891;50.006;21.964;2023-07-13T10:14:35;7.97;;;6.35;;
56999;SDS011;42891;50.006;21.964;2023-07-13T10:18:44;7.50;;;6.05;;
56999;SDS011;42891;50.006;21.964;2023-07-13T10:27:01;7.80;;;7.00;;
56999;SDS011;42891;50.006;21.964;2023-07-13T10:31:10;7.85;;;6.93;;
56999;SDS011;42891;50.006;21.964;2023-07-13T10:35:14;7.25;;;6.50;;
56999;SDS011;42891;50.006;21.964;2023-07-13T10:39:21;7.47;;;6.10;;
56999;SDS011;42891;50.006;21.964;2023-07-13T10:43:31;9.35;;;6.18;;
56999;SDS011;42891;50.006;21.964;2023-07-13T10:47:36;8.95;;;5.05;;
56999;SDS011;42891;50.006;21.964;2023-07-13T10:51:39;8.13;;;4.68;;
56999;SDS011;42891;50.006;21.964;2023-07-13T11:04:03;5.88;;;4.88;;
56999;SDS011;42891;50.006;21.964;2023-07-13T11:08:18;5.22;;;4.22;;
56999;SDS011;42891;50.006;21.964;2023-07-13T11:20:32;6.13;;;5.25;;
56999;SDS011;42891;50.006;21.964;2023-07-13T11:24:48;6.97;;;5.90;;
56999;SDS011;42891;50.006;21.964;2023-07-13T11:28:48;7.00;;;5.72;;
56999;SDS011;42891;50.006;21.964;2023-07-13T11:37:28;7.93;;;6.13;;
56999;SDS011;42891;50.006;21.964;2023-07-13T11:41:31;8.68;;;6.22;;
56999;SDS011;42891;50.006;21.964;2023-07-13T11:45:35;12.48;;;6.60;;
56999;SDS011;42891;50.006;21.964;2023-07-13T11:49:45;7.60;;;6.72;;
56999;SDS011;42891;50.006;21.964;2023-07-13T11:53:49;7.65;;;6.85;;
56999;SDS011;42891;50.006;21.964;2023-07-13T11:57:53;10.77;;;9.05;;
56999;SDS011;42891;50.006;21.964;2023-07-13T12:02:00;13.05;;;10.07;;
56999;SDS011;42891;50.006;21.964;2023-07-13T12:06:04;11.10;;;7.65;;
56999;SDS011;42891;50.006;21.964;2023-07-13T12:14:25;6.68;;;4.50;;
56999;SDS011;42891;50.006;21.964;2023-07-13T12:18:30;7.88;;;4.05;;
56999;SDS011;42891;50.006;21.964;2023-07-13T12:22:33;7.90;;;3.80;;
56999;SDS011;42891;50.006;21.964;2023-07-13T12:26:34;7.88;;;4.45;;
56999;SDS011;42891;50.006;21.964;2023-07-13T12:30:34;6.53;;;4.68;;
56999;SDS011;42891;50.006;21.964;2023-07-13T12:34:49;7.32;;;5.43;;
56999;SDS011;42891;50.006;21.964;2023-07-13T12:42:52;12.43;;;7.53;;
56999;SDS011;42891;50.006;21.964;2023-07-13T12:46:53;9.60;;;6.80;;
56999;SDS011;42891;50.006;21.964;2023-07-13T12:51:00;10.68;;;8.05;;
56999;SDS011;42891;50.006;21.964;2023-07-13T12:59:04;15.20;;;10.15;;
56999;SDS011;42891;50.006;21.964;2023-07-13T13:03:07;14.93;;;11.65;;
56999;SDS011;42891;50.006;21.964;2023-07-13T13:07:20;13.80;;;10.77;;
56999;SDS011;42891;50.006;21.964;2023-07-13T13:11:22;15.88;;;11.07;;
56999;SDS011;42891;50.006;21.964;2023-07-13T13:15:23;15.95;;;12.60;;
56999;SDS011;42891;50.006;21.964;2023-07-13T13:19:24;12.55;;;10.07;;
56999;SDS011;42891;50.006;21.964;2023-07-13T13:23:27;13.52;;;9.45;;
56999;SDS011;42891;50.006;21.964;2023-07-13T13:27:28;8.50;;;6.78;;
56999;SDS011;42891;50.006;21.964;2023-07-13T13:31:29;9.43;;;6.95;;
56999;SDS011;42891;50.006;21.964;2023-07-13T13:35:29;10.47;;;7.47;;
56999;SDS011;42891;50.006;21.964;2023-07-13T13:39:34;7.05;;;6.35;;
56999;SDS011;42891;50.006;21.964;2023-07-13T13:43:35;10.50;;;5.93;;
56999;SDS011;42891;50.006;21.964;2023-07-13T13:47:36;7.60;;;5.50;;
56999;SDS011;42891;50.006;21.964;2023-07-13T13:51:36;5.93;;;4.13;;
56999;SDS011;42891;50.006;21.964;2023-07-13T13:55:37;4.78;;;4.25;;
56999;SDS011;42891;50.006;21.964;2023-07-13T13:59:38;7.32;;;4.85;;
56999;SDS011;42891;50.006;21.964;2023-07-13T14:03:39;6.90;;;4.75;;
56999;SDS011;42891;50.006;21.964;2023-07-13T14:07:40;4.60;;;2.92;;
56999;SDS011;42891;50.006;21.964;2023-07-13T14:11:40;4.33;;;3.00;;
56999;SDS011;42891;50.006;21.964;2023-07-13T14:15:42;3.40;;;2.92;;
56999;SDS011;42891;50.006;21.964;2023-07-13T14:19:42;3.28;;;1.90;;
56999;SDS011;42891;50.006;21.964;2023-07-13T14:23:43;2.93;;;2.10;;
56999;SDS011;42891;50.006;21.964;2023-07-13T14:27:45;2.33;;;1.80;;
56999;SDS011;42891;50.006;21.964;2023-07-13T14:31:48;2.83;;;2.00;;
56999;SDS011;42891;50.006;21.964;2023-07-13T14:35:49;2.40;;;2.00;;
56999;SDS011;42891;50.006;21.964;2023-07-13T14:39:50;2.63;;;1.95;;
56999;SDS011;42891;50.006;21.964;2023-07-13T14:43:52;2.22;;;1.67;;
56999;SDS011;42891;50.006;21.964;2023-07-13T14:47:52;3.50;;;2.10;;
56999;SDS011;42891;50.006;21.964;2023-07-13T14:51:54;2.28;;;1.75;;
56999;SDS011;42891;50.006;21.964;2023-07-13T14:55:57;3.45;;;2.22;;
56999;SDS011;42891;50.006;21.964;2023-07-13T14:59:57;4.80;;;2.60;;
56999;SDS011;42891;50.006;21.964;2023-07-13T15:03:58;6.10;;;2.30;;
56999;SDS011;42891;50.006;21.964;2023-07-13T15:07:59;2.20;;;2.00;;
56999;SDS011;42891;50.006;21.964;2023-07-13T15:12:02;3.03;;;2.40;;
56999;SDS011;42891;50.006;21.964;2023-07-13T15:16:02;3.15;;;2.40;;
56999;SDS011;42891;50.006;21.964;2023-07-13T15:20:06;4.20;;;2.33;;
56999;SDS011;42891;50.006;21.964;2023-07-13T15:24:16;3.95;;;2.50;;
56999;SDS011;42891;50.006;21.964;2023-07-13T15:28:16;3.03;;;2.40;;
56999;SDS011;42891;50.006;21.964;2023-07-13T15:32:17;2.40;;;2.20;;
56999;SDS011;42891;50.006;21.964;2023-07-13T15:36:19;3.38;;;2.70;;
56999;SDS011;42891;50.006;21.964;2023-07-13T15:40:20;4.45;;;2.28;;
56999;SDS011;42891;50.006;21.964;2023-07-13T15:44:25;3.05;;;2.17;;
56999;SDS011;42891;50.006;21.964;2023-07-13T15:48:26;3.42;;;2.20;;
56999;SDS011;42891;50.006;21.964;2023-07-13T15:52:30;2.93;;;2.40;;
56999;SDS011;42891;50.006;21.964;2023-07-13T15:56:33;3.15;;;2.10;;
56999;SDS011;42891;50.006;21.964;2023-07-13T16:00:36;2.42;;;1.88;;
56999;SDS011;42891;50.006;21.964;2023-07-13T16:04:36;3.08;;;2.08;;
56999;SDS011;42891;50.006;21.964;2023-07-13T16:08:37;3.20;;;2.00;;
56999;SDS011;42891;50.006;21.964;2023-07-13T16:12:40;2.67;;;2.13;;
56999;SDS011;42891;50.006;21.964;2023-07-13T16:16:41;3.75;;;2.33;;
56999;SDS011;42891;50.006;21.964;2023-07-13T16:20:41;3.72;;;1.90;;
56999;SDS011;42891;50.006;21.964;2023-07-13T16:24:43;3.17;;;2.38;;
56999;SDS011;42891;50.006;21.964;2023-07-13T16:28:45;3.78;;;2.22;;
56999;SDS011;42891;50.006;21.964;2023-07-13T16:32:45;4.43;;;2.27;;
56999;SDS011;42891;50.006;21.964;2023-07-13T16:36:45;3.77;;;3.00;;
56999;SDS011;42891;50.006;21.964;2023-07-13T16:40:45;4.05;;;3.05;;
56999;SDS011;42891;50.006;21.964;2023-07-13T16:44:47;6.07;;;3.53;;
56999;SDS011;42891;50.006;21.964;2023-07-13T16:48:47;3.88;;;3.20;;
56999;SDS011;42891;50.006;21.964;2023-07-13T16:52:48;4.57;;;3.10;;
56999;SDS011;42891;50.006;21.964;2023-07-13T16:56:49;4.45;;;3.40;;
56999;SDS011;42891;50.006;21.964;2023-07-13T17:00:51;3.75;;;3.42;;
56999;SDS011;42891;50.006;21.964;2023-07-13T17:04:52;4.65;;;3.25;;
56999;SDS011;42891;50.006;21.964;2023-07-13T17:08:53;5.47;;;3.60;;
56999;SDS011;42891;50.006;21.964;2023-07-13T17:12:54;5.70;;;4.25;;
56999;SDS011;42891;50.006;21.964;2023-07-13T17:16:55;5.88;;;4.53;;
56999;SDS011;42891;50.006;21.964;2023-07-13T17:20:56;5.15;;;4.28;;
56999;SDS011;42891;50.006;21.964;2023-07-13T17:24:57;6.93;;;5.30;;
56999;SDS011;42891;50.006;21.964;2023-07-13T17:28:58;6.40;;;5.18;;
56999;SDS011;42891;50.006;21.964;2023-07-13T17:32:58;6.30;;;4.60;;
56999;SDS011;42891;50.006;21.964;2023-07-13T17:37:02;9.55;;;4.28;;
56999;SDS011;42891;50.006;21.964;2023-07-13T17:41:03;5.18;;;4.00;;
56999;SDS011;42891;50.006;21.964;2023-07-13T17:45:04;7.03;;;4.78;;
56999;SDS011;42891;50.006;21.964;2023-07-13T17:49:05;6.25;;;4.45;;
56999;SDS011;42891;50.006;21.964;2023-07-13T17:57:07;5.83;;;4.90;;
56999;SDS011;42891;50.006;21.964;2023-07-13T18:01:11;8.80;;;5.05;;
56999;SDS011;42891;50.006;21.964;2023-07-13T18:09:18;4.57;;;3.85;;
56999;SDS011;42891;50.006;21.964;2023-07-13T18:13:20;7.18;;;4.70;;
56999;SDS011;42891;50.006;21.964;2023-07-13T18:17:21;4.95;;;4.28;;
56999;SDS011;42891;50.006;21.964;2023-07-13T18:21:22;5.35;;;4.15;;
56999;SDS011;42891;50.006;21.964;2023-07-13T18:25:23;9.98;;;4.60;;
56999;SDS011;42891;50.006;21.964;2023-07-13T18:29:25;5.95;;;4.43;;
56999;SDS011;42891;50.006;21.964;2023-07-13T18:33:27;4.88;;;4.30;;
56999;SDS011;42891;50.006;21.964;2023-07-13T18:37:29;8.10;;;5.28;;
56999;SDS011;42891;50.006;21.964;2023-07-13T18:41:31;5.28;;;4.30;;
56999;SDS011;42891;50.006;21.964;2023-07-13T18:45:31;5.80;;;4.20;;
56999;SDS011;42891;50.006;21.964;2023-07-13T18:49:32;5.90;;;4.47;;
56999;SDS011;42891;50.006;21.964;2023-07-13T18:53:32;5.57;;;4.65;;
56999;SDS011;42891;50.006;21.964;2023-07-13T18:57:32;5.35;;;4.38;;
56999;SDS011;42891;50.006;21.964;2023-07-13T19:01:33;5.90;;;4.53;;
56999;SDS011;42891;50.006;21.964;2023-07-13T19:05:35;9.25;;;4.97;;
56999;SDS011;42891;50.006;21.964;2023-07-13T19:09:36;6.22;;;4.70;;
56999;SDS011;42891;50.006;21.964;2023-07-13T19:13:38;5.55;;;4.82;;
56999;SDS011;42891;50.006;21.964;2023-07-13T19:17:38;6.97;;;5.37;;
56999;SDS011;42891;50.006;21.964;2023-07-13T19:21:39;10.10;;;5.05;;
56999;SDS011;42891;50.006;21.964;2023-07-13T19:25:39;6.75;;;6.07;;
56999;SDS011;42891;50.006;21.964;2023-07-13T19:29:40;9.18;;;5.50;;
56999;SDS011;42891;50.006;21.964;2023-07-13T19:33:41;8.68;;;5.68;;
56999;SDS011;42891;50.006;21.964;2023-07-13T19:37:41;10.90;;;6.83;;
56999;SDS011;42891;50.006;21.964;2023-07-13T19:41:42;12.45;;;7.45;;
56999;SDS011;42891;50.006;21.964;2023-07-13T19:45:42;10.48;;;7.43;;
56999;SDS011;42891;50.006;21.964;2023-07-13T19:49:43;9.88;;;7.15;;
56999;SDS011;42891;50.006;21.964;2023-07-13T19:53:44;9.45;;;7.22;;
56999;SDS011;42891;50.006;21.964;2023-07-13T19:57:45;11.25;;;8.30;;
56999;SDS011;42891;50.006;21.964;2023-07-13T20:01:46;10.70;;;7.85;;
56999;SDS011;42891;50.006;21.964;2023-07-13T20:05:46;10.82;;;8.63;;
56999;SDS011;42891;50.006;21.964;2023-07-13T20:09:48;14.13;;;9.70;;
56999;SDS011;42891;50.006;21.964;2023-07-13T20:13:50;16.75;;;9.23;;
56999;SDS011;42891;50.006;21.964;2023-07-13T20:17:51;13.88;;;9.95;;
56999;SDS011;42891;50.006;21.964;2023-07-13T20:21:53;20.77;;;10.73;;
56999;SDS011;42891;50.006;21.964;2023-07-13T20:25:53;18.10;;;8.90;;
56999;SDS011;42891;50.006;21.964;2023-07-13T20:29:54;15.50;;;9.13;;
56999;SDS011;42891;50.006;21.964;2023-07-13T20:33:57;13.45;;;8.68;;
56999;SDS011;42891;50.006;21.964;2023-07-13T20:37:58;14.23;;;8.82;;
56999;SDS011;42891;50.006;21.964;2023-07-13T20:41:59;12.60;;;9.20;;
56999;SDS011;42891;50.006;21.964;2023-07-13T20:46:00;17.60;;;9.33;;
56999;SDS011;42891;50.006;21.964;2023-07-13T20:50:02;16.42;;;8.48;;
56999;SDS011;42891;50.006;21.964;2023-07-13T20:54:15;15.70;;;9.10;;
56999;SDS011;42891;50.006;21.964;2023-07-13T20:58:19;16.35;;;8.65;;
56999;SDS011;42891;50.006;21.964;2023-07-13T21:06:23;16.95;;;8.50;;
56999;SDS011;42891;50.006;21.964;2023-07-13T21:10:27;15.85;;;8.18;;
56999;SDS011;42891;50.006;21.964;2023-07-13T21:14:28;15.40;;;8.23;;
56999;SDS011;42891;50.006;21.964;2023-07-13T21:18:29;13.35;;;8.40;;
56999;SDS011;42891;50.006;21.964;2023-07-13T21:22:29;18.85;;;8.20;;
56999;SDS011;42891;50.006;21.964;2023-07-13T21:26:30;18.38;;;8.25;;
56999;SDS011;42891;50.006;21.964;2023-07-13T21:30:34;15.75;;;7.38;;
56999;SDS011;42891;50.006;21.964;2023-07-13T21:34:39;11.32;;;7.20;;
56999;SDS011;42891;50.006;21.964;2023-07-13T21:38:40;14.63;;;8.43;;
56999;SDS011;42891;50.006;21.964;2023-07-13T21:42:42;16.40;;;7.05;;
56999;SDS011;42891;50.006;21.964;2023-07-13T21:46:43;12.65;;;6.93;;
56999;SDS011;42891;50.006;21.964;2023-07-13T21:50:50;22.37;;;7.87;;
56999;SDS011;42891;50.006;21.964;2023-07-13T21:54:53;11.20;;;6.85;;
56999;SDS011;42891;50.006;21.964;2023-07-13T21:58:53;9.57;;;6.28;;
56999;SDS011;42891;50.006;21.964;2023-07-13T22:02:55;13.10;;;6.93;;
56999;SDS011;42891;50.006;21.964;2023-07-13T22:06:58;11.60;;;6.32;;
56999;SDS011;42891;50.006;21.964;2023-07-13T22:11:08;15.07;;;6.63;;
56999;SDS011;42891;50.006;21.964;2023-07-13T22:15:11;12.35;;;6.72;;
56999;SDS011;42891;50.006;21.964;2023-07-13T22:19:13;12.35;;;6.60;;
56999;SDS011;42891;50.006;21.964;2023-07-13T22:23:17;10.07;;;6.93;;
56999;SDS011;42891;50.006;21.964;2023-07-13T22:27:20;9.40;;;5.90;;
56999;SDS011;42891;50.006;21.964;2023-07-13T22:31:20;11.10;;;6.75;;
56999;SDS011;42891;50.006;21.964;2023-07-13T22:35:21;12.65;;;6.82;;
56999;SDS011;42891;50.006;21.964;2023-07-13T22:39:27;10.38;;;6.65;;
56999;SDS011;42891;50.006;21.964;2023-07-13T22:43:31;18.52;;;6.68;;
56999;SDS011;42891;50.006;21.964;2023-07-13T22:47:31;20.63;;;7.45;;
56999;SDS011;42891;50.006;21.964;2023-07-13T22:51:31;17.92;;;7.18;;
56999;SDS011;42891;50.006;21.964;2023-07-13T22:55:32;17.33;;;7.43;;
56999;SDS011;42891;50.006;21.964;2023-07-13T22:59:34;17.20;;;6.97;;
56999;SDS011;42891;50.006;21.964;2023-07-13T23:03:35;17.77;;;6.57;;
56999;SDS011;42891;50.006;21.964;2023-07-13T23:07:36;11.30;;;6.63;;
56999;SDS011;42891;50.006;21.964;2023-07-13T23:11:38;19.30;;;6.90;;
56999;SDS011;42891;50.006;21.964;2023-07-13T23:15:38;12.57;;;6.90;;
56999;SDS011;42891;50.006;21.964;2023-07-13T23:19:39;17.02;;;7.18;;
56999;SDS011;42891;50.006;21.964;2023-07-13T23:23:39;11.75;;;6.78;;
56999;SDS011;42891;50.006;21.964;2023-07-13T23:27:40;10.48;;;5.72;;
56999;SDS011;42891;50.006;21.964;2023-07-13T23:31:40;13.30;;;6.95;;
56999;SDS011;42891;50.006;21.964;2023-07-13T23:35:41;13.27;;;6.70;;
56999;SDS011;42891;50.006;21.964;2023-07-13T23:39:41;17.80;;;7.40;;
56999;SDS011;42891;50.006;21.964;2023-07-13T23:43:42;12.20;;;6.28;;
56999;SDS011;42891;50.006;21.964;2023-07-13T23:47:43;16.42;;;6.80;;
56999;SDS011;42891;50.006;21.964;2023-07-13T23:51:44;14.52;;;6.22;;
56999;SDS011;42891;50.006;21.964;2023-07-13T23:55:45;12.73;;;6.40;;
56999;SDS011;42891;50.006;21.964;2023-07-13T23:59:45;8.85;;;5.35;;
